»·PEaware :: N713AG KSBP-KSAN

N713AG :: KSBP-KSAN

FLIGHT INFORMATION

Flight Status: Arrived
Operator: Privately registered:
United States
More flights under this callsign
Pilot: Sanjiv S. (4490)
Aircraft: SOCATA TBM-900
(TBM9)
More flights by this aircraft type
Origin: KSBP San Luis Co Regl
United States
Destination: KSAN San Diego Intl-Lindbergh
United States
More flights between these airports :: More routes between these airports
Route: +RZS VTU V208 SXC V208 LAX118R CARDI MZB320R MZB
File this flight plan on PilotEdge
Remarks: TEC route SBAP64
Altitude:
(Current/Filed)
9,000ft
Speed:
(Current/Filed)
240kts
Departed: 21-Nov-18 08:51 AM
Arrived: 21-Nov-18 10:06 AM
Distance/Time
Traveled:
229nm/1:15
Distance/Time
To Go:
Arrived

Flight Plot

Page will automatically refresh every two minutes.


Map Options




Map Legend


Flown Route
Filed Route
Departure Airport
Arrival Airport
Navaid (VOR, NDB)
Fix

Horizontal Profiles

Position Reports

Time Latitude Longitude Heading Altitude Ground
Speed
21-Nov-18 08:35 35.238945 -120.639406 0 178ft 0kts
21-Nov-18 08:36 35.238945 -120.639406 180 178ft 0kts
21-Nov-18 08:37 35.238945 -120.639406 180 178ft 0kts
21-Nov-18 08:38 35.238945 -120.639406 180 178ft 0kts
21-Nov-18 08:39 35.238945 -120.639406 180 178ft 0kts
21-Nov-18 08:40 35.238945 -120.639406 180 178ft 0kts
21-Nov-18 08:41 35.238945 -120.639406 180 178ft 0kts
21-Nov-18 08:42 35.238945 -120.639406 180 178ft 0kts
21-Nov-18 08:43 35.238945 -120.639406 180 178ft 0kts
21-Nov-18 08:44 35.238945 -120.639406 180 178ft 0kts
21-Nov-18 08:45 35.238945 -120.639406 180 178ft 0kts
21-Nov-18 08:46 35.238945 -120.639406 180 178ft 0kts
21-Nov-18 08:47 35.238904 -120.639406 180 178ft 1kts
21-Nov-18 08:48 35.237297 -120.638767 124 178ft 11kts
21-Nov-18 08:49 35.235356 -120.635385 125 178ft 15kts
21-Nov-18 08:50 35.233232 -120.632269 214 178ft 5kts
21-Nov-18 08:51 35.233211 -120.632287 214 178ft 0kts
21-Nov-18 08:52 35.233141 -120.632345 213 178ft 3kts
21-Nov-18 08:53 35.233082 -120.633321 305 178ft 16kts
21-Nov-18 08:54 35.245009 -120.655258 303 480ft 141kts
21-Nov-18 08:55 35.263935 -120.687031 302 1836ft 145kts
21-Nov-18 08:56 35.280689 -120.719187 302 3214ft 142kts
21-Nov-18 08:57 35.297564 -120.751374 302 4529ft 145kts
21-Nov-18 08:58 35.314353 -120.783618 302 5912ft 148kts
21-Nov-18 08:59 35.331562 -120.816672 302 7361ft 155kts
21-Nov-18 09:00 35.316870 -120.845434 167 8039ft 183kts
21-Nov-18 09:01 35.293676 -120.813690 124 9286ft 159kts
21-Nov-18 09:02 35.276199 -120.785469 132 10748ft 117kts
21-Nov-18 09:03 35.259847 -120.764104 132 12107ft 109kts
21-Nov-18 09:04 35.241072 -120.739884 134 13122ft 149kts
21-Nov-18 09:05 35.217031 -120.709216 133 14006ft 184kts
21-Nov-18 09:06 35.191167 -120.675911 133 15049ft 193kts
21-Nov-18 09:07 35.163874 -120.640839 133 16084ft 201kts
21-Nov-18 09:08 35.135130 -120.603969 133 17126ft 207kts
21-Nov-18 09:09 35.104438 -120.564651 133 18204ft 209kts
21-Nov-18 09:10 35.073796 -120.525450 133 18902ft 226kts
21-Nov-18 09:11 35.038387 -120.480211 133 18918ft 261kts
21-Nov-18 09:12 34.998032 -120.428716 133 18907ft 277kts
21-Nov-18 09:13 34.957237 -120.376736 133 18902ft 284kts
21-Nov-18 09:14 34.921393 -120.331138 133 19044ft 282kts
21-Nov-18 09:15 34.889281 -120.290341 133 19047ft 285kts
21-Nov-18 09:16 34.845895 -120.235295 133 19047ft 287kts
21-Nov-18 09:17 34.789057 -120.163320 133 19046ft 288kts
21-Nov-18 09:18 34.728837 -120.087229 133 19046ft 288kts
21-Nov-18 09:19 34.668030 -120.010571 133 19046ft 288kts
21-Nov-18 09:20 34.608376 -119.935533 133 19046ft 288kts
21-Nov-18 09:21 34.547686 -119.859361 133 19046ft 288kts
21-Nov-18 09:22 34.485540 -119.781539 133 19046ft 288kts
21-Nov-18 09:23 34.422641 -119.702952 133 19046ft 288kts
21-Nov-18 09:24 34.359917 -119.624765 133 19046ft 288kts
21-Nov-18 09:25 34.295925 -119.545183 133 19046ft 288kts
21-Nov-18 09:26 34.231698 -119.465493 133 19046ft 288kts
21-Nov-18 09:27 34.165974 -119.384137 133 19046ft 288kts
21-Nov-18 09:28 34.111389 -119.316720 134 19046ft 288kts
21-Nov-18 09:29 34.050719 -119.241940 134 19046ft 288kts
21-Nov-18 09:30 33.985118 -119.161263 134 19046ft 288kts
21-Nov-18 09:31 33.919924 -119.081275 134 19046ft 288kts
21-Nov-18 09:32 33.857208 -119.004501 134 19046ft 288kts
21-Nov-18 09:33 33.792133 -118.925020 134 19046ft 288kts
21-Nov-18 09:34 33.727259 -118.845968 134 19046ft 288kts
21-Nov-18 09:35 33.662085 -118.766732 134 19046ft 288kts
21-Nov-18 09:36 33.599072 -118.690295 134 19046ft 288kts
21-Nov-18 09:37 33.542714 -118.622073 134 19046ft 288kts
21-Nov-18 09:38 33.490326 -118.558778 134 19046ft 288kts
21-Nov-18 09:39 33.449665 -118.509730 134 19046ft 288kts
21-Nov-18 09:40 33.388988 -118.436666 134 19046ft 288kts
21-Nov-18 09:41 33.363815 -118.333679 98 19047ft 288kts
21-Nov-18 09:42 33.349343 -118.223190 98 19046ft 288kts
21-Nov-18 09:43 33.333551 -118.103600 98 19046ft 288kts
21-Nov-18 09:44 33.317735 -117.984733 98 19046ft 288kts
21-Nov-18 09:45 33.302410 -117.870403 98 19046ft 288kts
21-Nov-18 09:46 33.286969 -117.756024 98 19046ft 288kts
21-Nov-18 09:47 33.272384 -117.658392 99 18751ft 289kts
21-Nov-18 09:48 33.262536 -117.593279 100 18216ft 292kts
21-Nov-18 09:49 33.213055 -117.517667 133 17409ft 294kts
21-Nov-18 09:50 33.155882 -117.446085 133 15965ft 306kts
21-Nov-18 09:51 33.086155 -117.393860 154 14991ft 284kts
21-Nov-18 09:52 33.017152 -117.355516 154 14999ft 272kts
21-Nov-18 09:53 32.955001 -117.321029 155 14999ft 272kts
21-Nov-18 09:54 32.884906 -117.282197 155 13768ft 292kts
21-Nov-18 09:55 32.851052 -117.263463 155 12892ft 290kts
21-Nov-18 09:56 32.800319 -117.235424 155 11571ft 288kts
21-Nov-18 09:57 32.751628 -117.202962 148 10240ft 286kts
21-Nov-18 09:58 32.703895 -117.167770 145 8894ft 285kts
21-Nov-18 09:59 32.684341 -117.108142 101 7547ft 283kts
21-Nov-18 10:00 32.668383 -117.046565 110 6974ft 236kts
21-Nov-18 10:01 32.659709 -116.996441 60 6771ft 203kts
21-Nov-18 10:02 32.694500 -116.994935 304 5460ft 184kts
21-Nov-18 10:03 32.699919 -117.034550 275 3870ft 155kts
21-Nov-18 10:04 32.702649 -117.067479 282 2508ft 147kts
21-Nov-18 10:05 32.710958 -117.100307 292 1323ft 137kts
21-Nov-18 10:06 32.718729 -117.129817 286 798ft 124kts
21-Nov-18 10:07 32.725389 -117.156612 286 537ft 103kts
21-Nov-18 10:08 32.731274 -117.180315 286 39ft 84kts
21-Nov-18 10:09 32.734146 -117.187788 78 18ft 9kts
21-Nov-18 10:10 32.733575 -117.184969 105 18ft 15kts
21-Nov-18 10:11 32.732946 -117.180822 107 18ft 18kts
21-Nov-18 10:12 32.733076 -117.178953 127 18ft 0kts
21-Nov-18 10:13 32.733076 -117.178954 127 18ft 0kts

Navigation Log

Ident Type
Flight plan parsing failed, navigation log unavailable